Time;durP1;ratioP1;P1;durP2;ratioP2;P2;SDS_P1;SDS_P2;PMS_P1;PMS_P2;Temp;Humidity;BMP_temperature;BMP_pressure;BME280_temperature;BME280_humidity;BME280_pressure;Samples;Min_cycle;Max_cycle;Signal;HPM_P1;HPM_P2
2022/03/14 00:04:31;;;;;;;19.58;9.07;;;11.00;99.90;;;;;;10390427;28;84907;-62
2022/03/14 00:09:31;;;;;;;18.33;8.02;;;10.90;99.90;;;;;;10408055;28;85033;-58
2022/03/14 00:14:32;;;;;;;15.73;8.32;;;10.90;99.90;;;;;;10409282;28;84454;-59
2022/03/14 00:19:33;;;;;;;15.82;8.30;;;10.90;99.30;;;;;;10405645;28;84976;-59
2022/03/14 00:24:34;;;;;;;18.52;8.40;;;10.90;95.40;;;;;;10408575;28;85240;-56
2022/03/14 00:29:35;;;;;;;16.98;8.20;;;10.80;99.30;;;;;;10388876;28;86366;-58
2022/03/14 00:34:35;;;;;;;16.38;7.95;;;10.90;99.90;;;;;;10408060;28;84595;-58
2022/03/14 00:39:36;;;;;;;17.75;7.93;;;10.90;99.90;;;;;;10407840;28;84964;-58
2022/03/14 00:44:38;;;;;;;16.10;8.27;;;10.90;24.90;;;;;;10407920;28;84718;-57
2022/03/14 00:49:39;;;;;;;20.35;9.73;;;10.90;1.00;;;;;;10405151;28;84177;-59
2022/03/14 00:54:40;;;;;;;16.35;8.07;;;10.90;1.00;;;;;;10393721;28;85047;-59
2022/03/14 00:59:41;;;;;;;13.77;8.40;;;11.00;1.00;;;;;;10415190;28;84157;-58
2022/03/14 01:04:42;;;;;;;16.80;8.32;;;10.90;1.00;;;;;;10414836;28;85297;-60
2022/03/14 01:09:43;;;;;;;17.38;8.27;;;10.90;1.00;;;;;;10411694;28;85845;-59
2022/03/14 01:14:43;;;;;;;22.75;8.45;;;10.90;1.00;;;;;;10395015;28;86042;-59
2022/03/14 01:19:44;;;;;;;21.73;9.35;;;10.90;1.00;;;;;;10412693;28;84828;-60
2022/03/14 01:24:45;;;;;;;16.45;8.63;;;10.90;1.00;;;;;;10413038;28;84426;-60
2022/03/14 01:29:45;;;;;;;20.77;9.10;;;10.90;90.00;;;;;;10414291;28;84960;-59
2022/03/14 01:34:46;;;;;;;15.13;8.02;;;11.00;99.90;;;;;;10414542;28;84091;-60
2022/03/14 01:39:47;;;;;;;15.18;8.27;;;10.90;85.60;;;;;;10413089;28;84098;-58
2022/03/14 01:44:48;;;;;;;15.13;7.70;;;10.90;89.30;;;;;;10395414;28;84034;-58
2022/03/14 01:49:49;;;;;;;16.80;8.25;;;10.80;49.70;;;;;;10412572;28;84886;-59
2022/03/14 01:54:49;;;;;;;14.48;7.68;;;10.80;72.50;;;;;;10412616;28;84915;-57
2022/03/14 01:59:51;;;;;;;15.68;7.95;;;10.90;99.90;;;;;;10412183;28;84909;-59
2022/03/14 02:04:54;;;;;;;15.02;8.25;;;10.80;82.20;;;;;;10393914;28;86805;-57
2022/03/14 02:09:55;;;;;;;13.57;7.30;;;10.90;18.00;;;;;;10393077;28;85070;-60
2022/03/14 02:14:56;;;;;;;15.68;7.18;;;10.90;28.10;;;;;;10412567;28;84112;-58
2022/03/14 02:20:00;;;;;;;15.77;8.02;;;10.70;1.00;;;;;;10411101;28;85593;-58
2022/03/14 02:25:01;;;;;;;14.07;7.40;;;10.60;1.00;;;;;;10411996;28;84963;-57
2022/03/14 02:30:03;;;;;;;17.75;8.45;;;10.50;99.90;;;;;;10410627;28;84141;-59
2022/03/14 02:35:03;;;;;;;17.20;8.52;;;10.40;99.90;;;;;;10392965;28;85079;-59
2022/03/14 02:40:05;;;;;;;14.57;7.65;;;10.40;1.00;;;;;;10408652;28;86895;-60
2022/03/14 02:45:09;;;;;;;17.23;8.32;;;10.40;94.70;;;;;;10412247;28;84238;-59
2022/03/14 02:50:10;;;;;;;15.88;7.78;;;10.40;99.90;;;;;;10411188;28;86895;-59
2022/03/14 02:55:13;;;;;;;15.13;8.77;;;10.30;1.00;;;;;;10383414;28;84765;-57
2022/03/14 03:00:14;;;;;;;16.02;8.25;;;10.30;99.90;;;;;;10416818;28;84280;-60
2022/03/14 03:05:15;;;;;;;15.75;8.13;;;10.30;99.90;;;;;;10412839;28;84124;-58
2022/03/14 03:10:23;;;;;;;15.73;8.20;;;10.30;99.90;;;;;;10392621;28;84216;-59
2022/03/14 03:15:25;;;;;;;15.05;8.52;;;10.30;99.90;;;;;;10408353;28;84270;-57
2022/03/14 03:20:26;;;;;;;15.65;8.75;;;10.30;1.00;;;;;;10392739;28;85035;-60
2022/03/14 03:25:27;;;;;;;15.40;8.60;;;10.30;1.00;;;;;;10409742;28;85024;-56
2022/03/14 03:30:28;;;;;;;17.48;8.65;;;10.20;1.00;;;;;;10410354;28;84265;-58
2022/03/14 03:35:28;;;;;;;14.80;7.95;;;10.20;1.00;;;;;;10408092;28;85973;-58
2022/03/14 03:40:29;;;;;;;14.80;8.43;;;10.20;1.00;;;;;;10409462;28;84121;-59
2022/03/14 03:45:30;;;;;;;18.48;8.93;;;10.20;1.00;;;;;;10407529;28;84407;-60
2022/03/14 03:50:31;;;;;;;15.23;8.30;;;10.00;1.00;;;;;;10393518;28;84068;-58
2022/03/14 03:55:32;;;;;;;16.73;8.98;;;10.00;1.00;;;;;;10384694;22;84595;-45
2022/03/14 04:00:32;;;;;;;15.48;8.63;;;9.80;1.00;;;;;;10471436;27;92638;-48
2022/03/14 04:05:35;;;;;;;17.75;9.40;;;9.50;1.00;;;;;;10490839;27;85043;-50
2022/03/14 04:10:37;;;;;;;17.88;9.52;;;9.20;1.00;;;;;;10476873;27;84136;-49
2022/03/14 04:15:42;;;;;;;18.25;9.25;;;9.10;1.00;;;;;;10485452;27;84930;-45
2022/03/14 04:20:43;;;;;;;17.30;8.65;;;9.10;1.00;;;;;;10406312;28;84233;-45
2022/03/14 04:25:45;;;;;;;17.90;8.45;;;9.00;32.80;;;;;;10405550;28;85304;-50
2022/03/14 04:30:46;;;;;;;17.70;8.13;;;8.90;91.30;;;;;;10443927;27;84124;-47
2022/03/14 04:35:46;;;;;;;18.27;8.70;;;8.70;99.90;;;;;;10434694;28;84248;-47
2022/03/14 04:40:49;;;;;;;18.73;8.48;;;8.60;99.90;;;;;;10414183;28;84943;-49
2022/03/14 04:45:51;;;;;;;14.73;7.75;;;8.50;99.90;;;;;;10413174;28;84830;-49
2022/03/14 04:50:51;;;;;;;19.95;9.13;;;8.60;99.90;;;;;;10451672;28;84916;-52
2022/03/14 04:55:52;;;;;;;18.35;8.77;;;8.50;99.90;;;;;;10455219;28;84901;-49
2022/03/14 05:00:54;;;;;;;18.98;8.25;;;8.40;99.90;;;;;;10455473;28;84131;-48
2022/03/14 05:05:58;;;;;;;19.00;8.98;;;8.40;99.90;;;;;;10423673;28;84821;-45
2022/03/14 05:10:59;;;;;;;21.75;9.80;;;8.40;99.90;;;;;;10413043;28;84143;-45
2022/03/14 05:16:00;;;;;;;17.55;8.63;;;8.40;99.90;;;;;;10412182;28;84159;-47
2022/03/14 05:21:01;;;;;;;17.00;8.50;;;8.30;99.90;;;;;;10433437;28;84973;-49
2022/03/14 05:26:01;;;;;;;18.10;9.23;;;8.30;99.90;;;;;;10453830;28;85054;-49
2022/03/14 05:31:03;;;;;;;21.10;9.05;;;8.40;99.90;;;;;;10454892;28;84721;-48
2022/03/14 05:36:04;;;;;;;17.77;9.00;;;8.40;99.90;;;;;;10441983;27;84917;-49
2022/03/14 05:41:05;;;;;;;17.48;8.25;;;8.40;99.90;;;;;;10411520;28;84127;-44
2022/03/14 05:46:06;;;;;;;17.08;8.95;;;8.40;99.90;;;;;;10411094;28;84261;-46
2022/03/14 05:51:08;;;;;;;18.27;8.98;;;8.50;99.90;;;;;;10413476;28;84637;-45
2022/03/14 05:56:08;;;;;;;16.50;8.07;;;8.60;99.90;;;;;;10410888;28;84204;-47
2022/03/14 06:01:10;;;;;;;17.67;7.30;;;8.70;99.90;;;;;;10409907;28;85973;-49
2022/03/14 06:06:11;;;;;;;12.48;6.78;;;8.60;99.90;;;;;;10410871;28;84043;-45
2022/03/14 06:11:12;;;;;;;17.35;8.23;;;8.70;99.90;;;;;;10441514;27;85126;-46
2022/03/14 06:16:13;;;;;;;13.43;7.05;;;8.70;99.90;;;;;;10468096;27;84011;-47
2022/03/14 06:21:14;;;;;;;17.63;7.15;;;8.70;99.90;;;;;;10453110;27;84834;-48
2022/03/14 06:26:15;;;;;;;16.45;7.25;;;8.70;99.90;;;;;;10434001;28;83992;-47
2022/03/14 06:31:16;;;;;;;16.10;7.18;;;8.70;99.90;;;;;;10411497;28;84089;-50
2022/03/14 06:36:16;;;;;;;15.43;7.72;;;8.70;99.90;;;;;;10412360;28;84931;-46
2022/03/14 06:41:18;;;;;;;18.15;7.43;;;8.70;99.90;;;;;;10410190;28;84348;-47
2022/03/14 06:46:20;;;;;;;17.05;7.18;;;8.70;99.90;;;;;;10416575;28;86854;-48
2022/03/14 06:51:24;;;;;;;12.90;7.20;;;8.70;99.90;;;;;;10450819;27;84705;-44
2022/03/14 06:56:25;;;;;;;15.35;7.28;;;8.70;99.90;;;;;;10450512;28;84117;-50
2022/03/14 07:01:30;;;;;;;16.20;6.95;;;8.60;99.90;;;;;;10434860;28;84130;-45
2022/03/14 07:06:31;;;;;;;14.02;6.47;;;8.60;99.90;;;;;;10450386;28;84956;-43
2022/03/14 07:11:32;;;;;;;13.10;6.82;;;8.50;99.90;;;;;;10451041;27;84793;-49
2022/03/14 07:16:33;;;;;;;12.23;5.75;;;8.40;99.90;;;;;;10448512;27;84809;-48
2022/03/14 07:21:34;;;;;;;12.75;5.50;;;8.50;99.90;;;;;;10451418;28;84664;-44
2022/03/14 07:26:35;;;;;;;13.00;5.38;;;8.50;99.90;;;;;;10449181;27;84024;-48
2022/03/14 07:31:37;;;;;;;11.50;4.93;;;8.50;99.90;;;;;;10450373;28;85803;-46
2022/03/14 07:36:38;;;;;;;12.82;5.88;;;8.50;99.90;;;;;;10450375;28;84829;-46
2022/03/14 07:41:38;;;;;;;7.90;4.28;;;8.50;99.90;;;;;;10450822;28;84965;-43
2022/03/14 07:46:39;;;;;;;15.52;6.10;;;8.60;99.90;;;;;;10450601;28;84599;-46
2022/03/14 07:51:40;;;;;;;9.80;5.38;;;8.60;99.90;;;;;;10419763;28;84223;-51
2022/03/14 07:56:42;;;;;;;11.75;5.70;;;8.70;99.90;;;;;;10407538;28;84916;-48
2022/03/14 08:01:42;;;;;;;12.32;5.72;;;8.80;99.90;;;;;;10409684;28;85026;-48
2022/03/14 08:06:43;;;;;;;14.60;6.43;;;8.90;99.90;;;;;;10416183;28;84950;-49
2022/03/14 08:11:44;;;;;;;10.52;5.43;;;8.80;99.90;;;;;;10414719;28;85873;-51
2022/03/14 08:16:44;;;;;;;10.43;5.03;;;8.90;99.90;;;;;;10424864;28;84934;-50
2022/03/14 08:21:46;;;;;;;12.55;5.22;;;8.90;99.90;;;;;;10458183;28;84858;-50
2022/03/14 08:26:47;;;;;;;12.38;6.40;;;9.00;99.90;;;;;;10456323;28;84915;-47
2022/03/14 08:31:48;;;;;;;11.93;6.15;;;8.90;99.90;;;;;;10455989;28;84217;-48
2022/03/14 08:36:49;;;;;;;12.80;6.07;;;8.90;99.90;;;;;;10454497;27;85064;-50
2022/03/14 08:41:50;;;;;;;11.55;6.63;;;8.90;99.90;;;;;;10457084;28;84039;-49
2022/03/14 08:46:50;;;;;;;10.25;5.53;;;9.00;99.90;;;;;;10454692;27;84062;-47
2022/03/14 08:51:51;;;;;;;11.90;5.85;;;9.20;99.90;;;;;;10414924;28;84913;-48
2022/03/14 08:56:51;;;;;;;10.20;5.25;;;9.30;99.90;;;;;;10413011;28;84976;-53
2022/03/14 09:01:52;;;;;;;9.60;5.47;;;9.30;99.90;;;;;;10415103;28;84880;-46
2022/03/14 09:06:54;;;;;;;9.45;4.70;;;9.40;99.90;;;;;;10445833;28;84039;-48
2022/03/14 09:11:54;;;;;;;13.93;5.47;;;9.50;99.90;;;;;;10455900;28;85063;-48
2022/03/14 09:16:55;;;;;;;10.85;5.45;;;9.60;99.90;;;;;;10453542;27;84091;-52
2022/03/14 09:21:58;;;;;;;10.93;5.30;;;9.70;99.90;;;;;;10450243;27;84105;-46
2022/03/14 09:27:00;;;;;;;9.57;5.10;;;9.70;99.90;;;;;;10413301;28;84037;-48
2022/03/14 09:32:01;;;;;;;10.38;5.40;;;9.80;99.90;;;;;;10413700;28;83964;-46
2022/03/14 09:37:01;;;;;;;8.35;4.80;;;9.90;99.90;;;;;;10412959;28;84337;-47
2022/03/14 09:42:02;;;;;;;7.18;4.57;;;9.90;99.90;;;;;;10412553;28;84719;-46
2022/03/14 09:47:03;;;;;;;11.18;5.05;;;10.10;99.90;;;;;;10411628;28;84216;-47
2022/03/14 09:52:07;;;;;;;11.35;4.82;;;10.20;99.90;;;;;;10412233;28;84002;-47
2022/03/14 09:57:07;;;;;;;9.07;5.28;;;10.30;99.90;;;;;;10448025;28;85072;-49
2022/03/14 10:02:12;;;;;;;9.80;5.30;;;10.50;99.90;;;;;;10469254;27;86117;-51
2022/03/14 10:07:13;;;;;;;12.23;5.35;;;10.50;99.90;;;;;;10452134;28;84104;-52
2022/03/14 10:12:14;;;;;;;11.95;5.75;;;10.50;99.90;;;;;;10427838;28;85012;-47
2022/03/14 10:17:15;;;;;;;10.35;5.80;;;10.60;99.90;;;;;;10408620;28;85777;-50
2022/03/14 10:22:18;;;;;;;13.82;5.63;;;10.60;99.90;;;;;;10409071;28;84878;-47
2022/03/14 10:27:20;;;;;;;10.30;5.80;;;10.70;99.90;;;;;;10409199;28;85240;-46
2022/03/14 10:32:34;;;;;;;15.95;6.55;;;10.80;99.90;;;;;;10409039;28;84153;-48
2022/03/14 10:37:36;;;;;;;12.80;6.53;;;11.10;99.90;;;;;;10445923;28;85172;-49
2022/03/14 10:42:42;;;;;;;12.35;6.18;;;11.30;99.90;;;;;;10450622;28;84084;-48
2022/03/14 10:47:47;;;;;;;8.70;4.63;;;11.70;99.90;;;;;;10443097;28;84108;-50
2022/03/14 10:53:01;;;;;;;9.30;5.70;;;11.70;99.90;;;;;;10408043;28;84189;-49
2022/03/14 10:58:13;;;;;;;8.85;5.60;;;11.90;99.90;;;;;;10406906;28;84590;-46
2022/03/14 11:03:22;;;;;;;12.18;5.80;;;12.50;12.40;;;;;;10408268;28;84667;-47
2022/03/14 11:08:40;;;;;;;14.77;6.13;;;12.80;1.00;;;;;;10410581;28;84930;-47
2022/03/14 11:13:43;;;;;;;10.32;5.53;;;12.90;1.00;;;;;;10408505;28;85363;-47
2022/03/14 11:18:45;;;;;;;9.75;5.47;;;13.30;1.00;;;;;;10416451;28;84876;-50
2022/03/14 11:23:48;;;;;;;10.23;5.53;;;13.50;1.00;;;;;;10449016;27;84884;-52
2022/03/14 11:28:50;;;;;;;8.88;5.32;;;13.10;1.00;;;;;;10448300;28;84948;-49
2022/03/14 11:33:51;;;;;;;9.70;5.43;;;13.00;1.00;;;;;;10448751;28;84961;-47
2022/03/14 11:38:52;;;;;;;9.90;4.60;;;13.40;1.00;;;;;;10445924;28;84232;-51
2022/03/14 11:43:53;;;;;;;9.63;4.82;;;13.40;1.00;;;;;;10449344;28;84149;-46
2022/03/14 11:49:17;;;;;;;12.00;5.25;;;13.20;1.00;;;;;;10448118;28;84754;-48
2022/03/14 11:54:18;;;;;;;8.85;4.93;;;13.60;1.00;;;;;;10447555;28;84857;-57
2022/03/14 11:59:31;;;;;;;8.30;4.93;;;13.60;1.00;;;;;;10463273;27;85029;-48
2022/03/14 12:04:37;;;;;;;9.07;5.10;;;13.60;1.00;;;;;;10447800;28;85016;-48
2022/03/14 12:09:45;;;;;;;8.68;5.03;;;13.60;1.00;;;;;;10424667;27;84080;-48
2022/03/14 12:14:48;;;;;;;11.75;5.07;;;14.50;1.00;;;;;;10406830;28;85023;-47
2022/03/14 12:19:55;;;;;;;6.28;4.85;;;15.40;1.00;;;;;;10406226;28;84370;-48
2022/03/14 12:24:57;;;;;;;14.80;4.72;;;15.10;1.00;;;;;;10421600;28;84151;-50
2022/03/14 12:29:58;;;;;;;7.32;4.93;;;15.70;1.00;;;;;;10446980;28;84131;-47
2022/03/14 12:35:12;;;;;;;8.60;4.80;;;15.70;1.00;;;;;;10445340;28;84885;-50
2022/03/14 12:40:18;;;;;;;10.48;4.43;;;15.90;1.00;;;;;;10446857;28;84022;-47
2022/03/14 12:45:21;;;;;;;6.95;4.50;;;16.00;1.00;;;;;;10448050;28;84110;-49
2022/03/14 12:50:50;;;;;;;10.10;5.10;;;15.20;1.00;;;;;;10423353;28;84905;-48
2022/03/14 12:55:51;;;;;;;7.38;4.45;;;14.80;1.00;;;;;;10411656;28;84432;-47
2022/03/14 13:00:55;;;;;;;8.43;4.97;;;14.50;1.00;;;;;;10412625;28;84039;-47
2022/03/14 13:05:56;;;;;;;9.73;4.43;;;14.50;1.00;;;;;;10431137;28;84945;-49
2022/03/14 13:11:00;;;;;;;7.90;4.35;;;14.40;1.00;;;;;;10453705;27;84108;-46
2022/03/14 13:16:28;;;;;;;7.20;4.13;;;14.50;1.00;;;;;;10452921;27;84166;-43
2022/03/14 13:21:32;;;;;;;10.00;4.20;;;14.40;1.00;;;;;;10438252;27;84879;-47
2022/03/14 13:26:35;;;;;;;6.28;4.40;;;14.20;1.00;;;;;;10409772;28;85087;-49
2022/03/14 13:31:37;;;;;;;9.00;4.22;;;14.80;1.00;;;;;;10411905;28;84414;-48
2022/03/14 13:36:41;;;;;;;9.85;4.60;;;14.90;99.90;;;;;;10411447;28;84239;-46
2022/03/14 13:41:45;;;;;;;8.73;4.82;;;14.80;1.00;;;;;;10411284;28;84863;-48
2022/03/14 13:46:47;;;;;;;6.38;3.97;;;14.60;99.90;;;;;;10441704;28;85002;-48
2022/03/14 13:51:52;;;;;;;7.70;4.63;;;14.30;1.00;;;;;;10453596;28;84983;-52
2022/03/14 13:57:07;;;;;;;8.02;4.03;;;14.30;1.00;;;;;;10452353;28;84919;-48
2022/03/14 14:02:14;;;;;;;9.25;4.45;;;14.10;1.00;;;;;;10410394;28;84837;-51
2022/03/14 14:07:25;;;;;;;6.78;4.65;;;13.90;1.00;;;;;;10410360;28;84197;-53
2022/03/14 14:12:27;;;;;;;7.57;4.90;;;13.60;1.00;;;;;;10411139;28;84798;-48
2022/03/14 14:17:42;;;;;;;7.35;4.70;;;13.70;1.00;;;;;;10432643;27;84796;-47
2022/03/14 14:22:45;;;;;;;8.63;4.28;;;14.00;1.00;;;;;;10409978;28;84349;-46
2022/03/14 14:27:58;;;;;;;9.30;4.90;;;14.20;1.00;;;;;;10418608;28;84465;-47
2022/03/14 14:32:59;;;;;;;7.78;4.50;;;14.60;1.00;;;;;;10450575;28;85092;-45
2022/03/14 14:38:01;;;;;;;8.95;4.70;;;14.70;1.00;;;;;;10450847;28;84997;-49
2022/03/14 14:43:01;;;;;;;6.72;3.90;;;14.40;1.00;;;;;;10451718;27;83988;-46
2022/03/14 14:48:03;;;;;;;5.53;3.85;;;14.30;1.00;;;;;;10448789;28;92858;-45
2022/03/14 14:53:07;;;;;;;9.30;3.90;;;14.00;1.00;;;;;;10450161;27;84104;-51
2022/03/14 14:58:09;;;;;;;8.73;4.25;;;13.90;1.00;;;;;;10448379;27;84150;-47
2022/03/14 15:03:10;;;;;;;5.30;3.22;;;13.80;1.00;;;;;;10448461;28;85030;-50
2022/03/14 15:08:11;;;;;;;7.47;3.97;;;13.70;1.00;;;;;;10447778;28;84904;-49
2022/03/14 15:13:12;;;;;;;9.88;4.28;;;13.40;1.00;;;;;;10448861;27;83982;-48
2022/03/14 15:18:13;;;;;;;9.07;3.92;;;13.30;1.00;;;;;;10448974;27;84124;-50
2022/03/14 15:23:14;;;;;;;5.93;2.85;;;13.10;1.00;;;;;;10450781;28;84296;-49
2022/03/14 15:28:15;;;;;;;4.50;2.58;;;12.70;1.00;;;;;;10449315;28;84982;-49
2022/03/14 15:33:16;;;;;;;7.10;3.03;;;12.60;1.00;;;;;;10453617;28;85096;-48
2022/03/14 15:38:17;;;;;;;5.57;2.90;;;12.70;1.00;;;;;;10449187;28;84285;-47
2022/03/14 15:43:17;;;;;;;6.40;3.17;;;12.90;1.00;;;;;;10449417;27;84209;-51
2022/03/14 15:48:18;;;;;;;7.88;3.45;;;13.00;1.00;;;;;;10449042;28;84329;-48
2022/03/14 15:53:19;;;;;;;5.70;2.60;;;12.90;1.00;;;;;;10449958;28;84071;-47
2022/03/14 15:58:19;;;;;;;3.80;2.63;;;12.90;1.00;;;;;;10449401;28;84151;-49
2022/03/14 16:03:20;;;;;;;4.95;2.60;;;12.90;1.00;;;;;;10449969;28;84638;-50
2022/03/14 16:08:22;;;;;;;6.43;3.08;;;12.80;1.00;;;;;;10448138;27;84847;-46
2022/03/14 16:13:30;;;;;;;7.18;3.00;;;12.70;1.00;;;;;;10449337;28;84262;-50
2022/03/14 16:18:31;;;;;;;6.80;3.17;;;12.60;1.00;;;;;;10448841;27;84247;-53
2022/03/14 16:23:32;;;;;;;7.75;3.28;;;12.60;1.00;;;;;;10451867;28;84136;-50
2022/03/14 16:28:33;;;;;;;8.65;3.25;;;12.70;1.00;;;;;;10454736;27;84690;-47
2022/03/14 16:33:34;;;;;;;5.53;3.08;;;12.70;1.00;;;;;;10455962;28;84897;-47
2022/03/14 16:38:34;;;;;;;8.35;3.45;;;12.70;1.00;;;;;;10454789;27;84761;-51
2022/03/14 16:43:36;;;;;;;5.75;2.60;;;12.60;1.00;;;;;;10456058;28;83974;-49
2022/03/14 16:48:38;;;;;;;7.90;3.78;;;12.50;1.00;;;;;;10454014;28;84866;-48
2022/03/14 16:53:38;;;;;;;11.95;3.30;;;12.40;1.00;;;;;;10454985;27;84122;-47
2022/03/14 16:58:39;;;;;;;5.60;3.25;;;12.20;1.00;;;;;;10453273;28;84835;-49
2022/03/14 17:03:39;;;;;;;5.13;3.13;;;12.20;1.00;;;;;;10454512;28;85075;-49
2022/03/14 17:08:40;;;;;;;5.70;3.28;;;12.10;1.00;;;;;;10451783;27;85956;-51
2022/03/14 17:13:41;;;;;;;10.57;3.75;;;12.00;1.00;;;;;;10455302;27;84104;-47
2022/03/14 17:18:42;;;;;;;7.32;3.92;;;11.90;1.00;;;;;;10454232;27;85216;-52
2022/03/14 17:23:43;;;;;;;5.70;3.50;;;11.90;1.00;;;;;;10454968;28;85001;-48
2022/03/14 17:28:43;;;;;;;6.13;3.80;;;11.80;1.00;;;;;;10453136;28;84132;-47
2022/03/14 17:33:44;;;;;;;7.32;3.92;;;11.60;1.00;;;;;;10451847;27;86139;-48
2022/03/14 17:38:45;;;;;;;7.63;3.58;;;11.70;1.00;;;;;;10452285;28;84194;-46
2022/03/14 17:43:46;;;;;;;6.75;3.60;;;11.60;1.00;;;;;;10453611;27;84087;-49
2022/03/14 17:48:46;;;;;;;6.80;4.10;;;11.50;1.00;;;;;;10451884;27;84780;-50
2022/03/14 17:53:47;;;;;;;6.93;4.50;;;11.60;1.00;;;;;;10453250;28;84154;-50
2022/03/14 17:58:48;;;;;;;12.40;5.43;;;11.60;1.00;;;;;;10451849;27;84692;-47
2022/03/14 18:03:49;;;;;;;11.02;4.50;;;11.60;1.00;;;;;;10452030;28;84139;-49
2022/03/14 18:08:50;;;;;;;12.48;4.13;;;11.60;1.00;;;;;;10451980;28;84910;-50
2022/03/14 18:13:50;;;;;;;8.98;4.15;;;11.60;1.00;;;;;;10452407;27;84676;-47
2022/03/14 18:18:51;;;;;;;8.15;4.53;;;11.50;1.00;;;;;;10450527;27;84981;-46
2022/03/14 18:23:51;;;;;;;9.05;4.32;;;11.40;1.00;;;;;;10452448;28;84737;-47
2022/03/14 18:28:56;;;;;;;8.90;4.45;;;11.40;1.00;;;;;;10450714;28;84590;-50
2022/03/14 18:34:00;;;;;;;9.85;4.07;;;11.30;1.00;;;;;;10451507;28;84244;-52
2022/03/14 18:39:02;;;;;;;8.80;4.45;;;11.30;1.00;;;;;;10451186;27;85070;-47
2022/03/14 18:44:03;;;;;;;6.55;4.50;;;11.20;1.00;;;;;;10449492;27;84756;-50
2022/03/14 18:49:04;;;;;;;9.00;4.72;;;11.10;1.00;;;;;;10449558;27;84345;-50
2022/03/14 18:54:06;;;;;;;9.90;4.88;;;11.00;1.00;;;;;;10450857;27;84104;-44
2022/03/14 18:59:07;;;;;;;10.40;4.63;;;11.00;1.00;;;;;;10449163;27;84286;-47
2022/03/14 19:04:09;;;;;;;7.93;5.00;;;11.00;1.00;;;;;;10450931;27;84850;-51
2022/03/14 19:09:09;;;;;;;9.63;4.70;;;10.90;1.00;;;;;;10450590;27;84063;-47
2022/03/14 19:14:13;;;;;;;12.52;5.38;;;11.10;1.00;;;;;;10451675;28;84614;-47
2022/03/14 19:19:16;;;;;;;8.48;5.10;;;11.10;1.00;;;;;;10449853;28;85001;-49
2022/03/14 19:24:17;;;;;;;10.68;4.63;;;11.00;1.00;;;;;;10451389;27;84975;-47
2022/03/14 19:29:18;;;;;;;10.35;4.90;;;11.00;1.00;;;;;;10450354;28;84129;-46
2022/03/14 19:34:18;;;;;;;10.48;4.93;;;11.00;1.00;;;;;;10452438;27;84130;-52
2022/03/14 19:39:19;;;;;;;9.80;5.20;;;10.90;1.00;;;;;;10450329;28;84996;-49
2022/03/14 19:44:22;;;;;;;8.63;5.07;;;11.00;1.00;;;;;;10450555;27;84614;-47
2022/03/14 19:49:24;;;;;;;10.50;5.35;;;10.90;1.00;;;;;;10449781;28;84922;-49
2022/03/14 19:54:25;;;;;;;7.60;4.35;;;10.70;1.00;;;;;;10450197;28;85092;-51
2022/03/14 19:59:27;;;;;;;10.05;4.75;;;10.70;1.00;;;;;;10468099;27;84896;-51
2022/03/14 20:04:28;;;;;;;8.98;4.63;;;10.60;1.00;;;;;;10458018;28;84791;-51
2022/03/14 20:09:30;;;;;;;8.90;4.80;;;10.50;1.00;;;;;;10456642;27;84122;-47
2022/03/14 20:14:34;;;;;;;10.20;4.95;;;10.50;1.00;;;;;;10455209;27;84304;-48
2022/03/14 20:19:35;;;;;;;12.23;4.40;;;10.40;1.00;;;;;;10457024;28;84130;-45
2022/03/14 20:24:35;;;;;;;11.02;4.85;;;10.30;1.00;;;;;;10457416;27;84718;-45
2022/03/14 20:29:36;;;;;;;9.50;5.05;;;10.20;1.00;;;;;;10429188;27;84861;-50
2022/03/14 20:34:37;;;;;;;11.52;4.97;;;10.20;1.00;;;;;;10416311;28;85029;-49
2022/03/14 20:39:37;;;;;;;10.75;5.10;;;10.10;1.00;;;;;;10414140;28;84050;-46
2022/03/14 20:44:38;;;;;;;11.52;5.78;;;10.00;1.00;;;;;;10413048;28;86021;-47
2022/03/14 20:49:39;;;;;;;8.55;5.20;;;10.00;1.00;;;;;;10428898;28;84198;-50
2022/03/14 20:54:39;;;;;;;10.18;5.60;;;9.90;1.00;;;;;;10456317;28;85134;-47
2022/03/14 20:59:40;;;;;;;10.18;5.32;;;9.90;1.00;;;;;;10454243;28;85025;-51
2022/03/14 21:04:42;;;;;;;13.38;6.13;;;9.80;1.00;;;;;;10454778;27;84801;-46
2022/03/14 21:09:43;;;;;;;11.35;5.45;;;9.80;1.00;;;;;;10452594;27;84953;-49
2022/03/14 21:14:44;;;;;;;17.25;7.78;;;9.80;1.00;;;;;;10470871;27;85381;-50
2022/03/14 21:19:45;;;;;;;13.43;7.25;;;9.70;1.00;;;;;;10456961;27;86102;-48
2022/03/14 21:24:47;;;;;;;14.10;6.28;;;9.70;1.00;;;;;;10412223;28;84771;-47
2022/03/14 21:29:47;;;;;;;10.77;5.75;;;9.70;1.00;;;;;;10411276;28;84126;-47
2022/03/14 21:34:48;;;;;;;15.88;6.65;;;9.60;1.00;;;;;;10431776;28;84996;-49
2022/03/14 21:39:48;;;;;;;13.90;5.72;;;9.50;1.00;;;;;;10453587;28;85188;-51
2022/03/14 21:44:49;;;;;;;12.52;6.13;;;9.50;1.00;;;;;;10454561;28;84098;-49
2022/03/14 21:49:50;;;;;;;11.77;5.60;;;9.40;3.60;;;;;;10423265;27;84183;-49
2022/03/14 21:54:51;;;;;;;10.40;5.82;;;9.30;7.40;;;;;;10412753;28;85399;-52
2022/03/14 21:59:53;;;;;;;11.77;5.60;;;9.30;10.50;;;;;;10411920;28;84041;-50
2022/03/14 22:04:53;;;;;;;10.45;5.50;;;9.30;4.20;;;;;;10449227;28;89203;-47
2022/03/14 22:09:54;;;;;;;11.77;5.82;;;9.20;5.90;;;;;;10451925;28;87137;-47
2022/03/14 22:14:55;;;;;;;13.07;6.13;;;9.10;18.70;;;;;;10448348;28;84085;-46
2022/03/14 22:19:55;;;;;;;13.77;6.45;;;9.10;24.20;;;;;;10409578;28;83994;-48
2022/03/14 22:24:58;;;;;;;13.55;6.38;;;9.00;31.90;;;;;;10410425;28;87603;-47
2022/03/14 22:29:59;;;;;;;15.98;7.10;;;9.00;30.20;;;;;;10421530;28;84933;-50
2022/03/14 22:34:59;;;;;;;13.13;6.43;;;9.00;21.60;;;;;;10447273;28;85710;-49
2022/03/14 22:40:00;;;;;;;13.50;6.70;;;8.80;33.50;;;;;;10450180;28;85128;-48
2022/03/14 22:45:01;;;;;;;17.85;7.35;;;8.70;51.80;;;;;;10451100;28;84846;-47
2022/03/14 22:50:02;;;;;;;18.45;6.80;;;8.70;64.40;;;;;;10430840;28;84870;-49
2022/03/14 22:55:03;;;;;;;17.73;9.55;;;8.60;99.90;;;;;;10409195;28;84094;-49
2022/03/14 23:00:32;;;;;;;14.77;6.68;;;8.50;99.90;;;;;;10405975;28;86028;-54
2022/03/14 23:05:32;;;;;;;11.40;6.10;;;8.50;99.90;;;;;;10437062;28;84929;-48
2022/03/14 23:15:54;;;;;;;12.50;5.95;;;8.40;99.90;;;;;;10409378;27;85708;-48
2022/03/14 23:20:56;;;;;;;10.35;5.30;;;8.40;99.90;;;;;;10407924;28;84986;-46
2022/03/14 23:25:58;;;;;;;11.07;5.70;;;8.40;99.90;;;;;;10412285;28;84871;-47
2022/03/14 23:30:58;;;;;;;10.65;4.97;;;8.40;99.90;;;;;;10450017;28;84917;-48
2022/03/14 23:36:00;;;;;;;12.48;5.45;;;8.30;99.90;;;;;;10447739;28;85324;-47
2022/03/14 23:41:02;;;;;;;15.93;5.97;;;8.30;99.90;;;;;;10434927;28;84262;-47
2022/03/14 23:46:03;;;;;;;10.18;5.05;;;8.30;99.90;;;;;;10405954;28;84919;-48
2022/03/14 23:51:04;;;;;;;14.77;6.03;;;8.20;99.90;;;;;;10407701;28;84784;-48
2022/03/14 23:56:05;;;;;;;12.07;5.57;;;8.30;99.90;;;;;;10428831;28;85276;-51
